createdAt,value
2022-10-31T00:01:30.312Z,60.16
2022-10-31T00:03:58.805Z,60.45
2022-10-31T00:06:27.360Z,60.01
2022-10-31T00:08:57.281Z,60.28
2022-10-31T00:11:25.971Z,60.39
2022-10-31T00:13:54.667Z,60.20
2022-10-31T00:16:26.101Z,60.34
2022-10-31T00:18:56.418Z,59.93
2022-10-31T00:21:25.268Z,60.23
2022-10-31T00:23:53.829Z,60.17
2022-10-31T00:26:22.644Z,60.09
2022-10-31T00:28:52.064Z,59.86
2022-10-31T00:31:20.659Z,60.38
2022-10-31T00:33:50.583Z,60.24
2022-10-31T00:36:21.622Z,60.21
2022-10-31T00:38:50.360Z,60.17
2022-10-31T00:41:20.008Z,60.20
2022-10-31T00:43:48.604Z,60.14
2022-10-31T00:46:17.467Z,60.21
2022-10-31T00:48:46.115Z,60.18
2022-10-31T00:51:15.974Z,60.18
2022-10-31T00:53:44.513Z,60.09
2022-10-31T00:56:13.037Z,60.00
2022-10-31T00:58:42.195Z,60.14
2022-10-31T01:01:11.213Z,60.22
2022-10-31T01:03:40.911Z,60.06
2022-10-31T01:06:14.944Z,59.99
2022-10-31T01:08:45.215Z,60.07
2022-10-31T01:11:18.260Z,60.13
2022-10-31T01:13:47.130Z,60.14
2022-10-31T01:16:17.037Z,60.10
2022-10-31T01:18:45.556Z,59.91
2022-10-31T01:21:16.086Z,60.04
2022-10-31T01:23:45.969Z,60.18
2022-10-31T01:26:17.744Z,59.90
2022-10-31T01:28:48.343Z,60.01
2022-10-31T01:31:18.437Z,59.71
2022-10-31T01:33:47.300Z,59.85
2022-10-31T01:36:18.219Z,59.86
2022-10-31T01:38:48.540Z,59.98
2022-10-31T01:41:20.462Z,59.94
2022-10-31T01:43:52.298Z,59.98
2022-10-31T01:46:23.853Z,59.81
2022-10-31T01:48:53.163Z,59.84
2022-10-31T01:51:24.218Z,59.94
2022-10-31T01:53:56.479Z,59.90
2022-10-31T01:56:25.057Z,59.66
2022-10-31T01:58:54.038Z,59.86
2022-10-31T02:01:22.823Z,59.82
2022-10-31T02:03:51.482Z,59.94
2022-10-31T02:06:29.038Z,59.67
2022-10-31T02:08:59.356Z,60.20
2022-10-31T02:11:28.354Z,59.97
2022-10-31T02:13:56.869Z,59.91
2022-10-31T02:16:25.671Z,59.97
2022-10-31T02:18:57.174Z,59.78
2022-10-31T02:21:31.702Z,59.62
2022-10-31T02:24:23.934Z,59.59
2022-10-31T02:27:03.827Z,59.37
2022-10-31T02:30:10.003Z,59.68
2022-10-31T02:33:05.250Z,59.65
2022-10-31T02:35:43.891Z,59.54
2022-10-31T02:38:27.460Z,59.67
2022-10-31T02:41:03.494Z,59.70
2022-10-31T02:43:42.014Z,59.64
2022-10-31T02:46:15.308Z,59.72
2022-10-31T02:48:46.686Z,59.93
2022-10-31T02:51:15.643Z,59.67
2022-10-31T02:53:44.634Z,59.68
2022-10-31T02:56:15.163Z,59.56
2022-10-31T02:58:46.515Z,59.51
2022-10-31T03:01:52.465Z,59.53
2022-10-31T03:04:58.416Z,59.78
2022-10-31T03:07:34.000Z,59.58
2022-10-31T03:10:07.270Z,59.78
2022-10-31T03:12:43.229Z,59.19
2022-10-31T03:15:18.073Z,59.59
2022-10-31T03:17:54.618Z,59.44
2022-10-31T03:20:29.337Z,59.48
2022-10-31T03:22:59.148Z,59.53
2022-10-31T03:25:28.332Z,59.33
2022-10-31T03:28:00.723Z,59.35
2022-10-31T03:30:31.465Z,59.35
2022-10-31T03:33:01.899Z,59.01
2022-10-31T03:35:35.035Z,59.66
2022-10-31T03:38:07.748Z,59.49
2022-10-31T03:40:39.020Z,59.33
2022-10-31T03:43:10.063Z,59.54
2022-10-31T03:45:43.065Z,59.32
2022-10-31T03:48:11.826Z,59.25
2022-10-31T03:50:48.232Z,59.50
2022-10-31T03:53:19.648Z,59.55
2022-10-31T03:55:51.742Z,59.30
2022-10-31T03:58:23.588Z,59.25
2022-10-31T04:00:53.514Z,59.45
2022-10-31T04:03:25.092Z,59.31
2022-10-31T04:05:57.541Z,59.30
2022-10-31T04:08:28.859Z,59.20
2022-10-31T04:10:59.719Z,59.50
2022-10-31T04:13:30.632Z,59.30
2022-10-31T04:16:17.146Z,59.54
2022-10-31T04:18:46.365Z,59.22
2022-10-31T04:21:16.249Z,59.49
2022-10-31T04:23:44.946Z,59.32
2022-10-31T04:26:21.327Z,59.25
2022-10-31T04:28:49.927Z,59.38
2022-10-31T04:31:18.736Z,59.32
2022-10-31T04:33:49.671Z,59.64
2022-10-31T04:36:19.566Z,59.35
2022-10-31T04:38:49.783Z,59.32
2022-10-31T04:41:32.861Z,59.55
2022-10-31T04:44:04.209Z,59.25
2022-10-31T04:46:32.732Z,59.40
2022-10-31T04:49:01.708Z,59.17
2022-10-31T04:51:31.625Z,59.50
2022-10-31T04:54:00.188Z,59.32
2022-10-31T04:56:47.199Z,59.21
2022-10-31T04:59:21.390Z,59.23
2022-10-31T05:01:54.222Z,59.43
2022-10-31T05:04:38.248Z,59.36
2022-10-31T05:07:08.511Z,59.37
2022-10-31T05:09:37.028Z,59.07
2022-10-31T05:12:05.725Z,59.35
2022-10-31T05:14:52.959Z,59.42
2022-10-31T05:17:48.021Z,59.18
2022-10-31T05:20:51.340Z,59.56
2022-10-31T05:23:38.188Z,59.02
2022-10-31T05:26:09.373Z,59.44
2022-10-31T05:28:37.864Z,59.07
2022-10-31T05:31:06.958Z,59.48
2022-10-31T05:33:35.533Z,59.38
2022-10-31T05:36:32.764Z,59.16
2022-10-31T05:39:23.339Z,59.03
2022-10-31T05:41:57.021Z,58.94
2022-10-31T05:44:28.844Z,59.23
2022-10-31T05:47:16.377Z,59.28
2022-10-31T05:50:03.312Z,59.10
2022-10-31T05:52:59.113Z,59.37
2022-10-31T05:55:34.593Z,59.14
2022-10-31T05:58:32.323Z,59.50
2022-10-31T06:01:06.456Z,59.13
2022-10-31T06:03:35.348Z,59.51
2022-10-31T06:06:06.260Z,59.36
2022-10-31T06:08:40.205Z,59.30
2022-10-31T06:11:16.127Z,59.04
2022-10-31T06:14:07.633Z,59.15
2022-10-31T06:16:47.589Z,59.11
2022-10-31T06:19:36.402Z,58.87
2022-10-31T06:22:04.945Z,59.27
2022-10-31T06:24:35.276Z,58.91
2022-10-31T06:27:22.980Z,58.97
2022-10-31T06:29:51.735Z,59.21
2022-10-31T06:32:28.564Z,59.13
2022-10-31T06:34:57.098Z,59.03
2022-10-31T06:37:25.728Z,59.00
2022-10-31T06:39:57.258Z,59.38
2022-10-31T06:42:27.086Z,59.00
2022-10-31T06:44:56.366Z,59.17
2022-10-31T06:48:10.893Z,59.03
2022-10-31T06:50:36.499Z,59.05
2022-10-31T06:53:05.197Z,59.09
2022-10-31T06:55:33.678Z,59.13
2022-10-31T06:58:04.807Z,58.86
2022-10-31T07:00:33.913Z,59.23
2022-10-31T07:03:09.439Z,59.28
2022-10-31T07:05:38.408Z,58.92
2022-10-31T07:08:09.552Z,59.10
2022-10-31T07:10:40.744Z,58.97
2022-10-31T07:13:13.878Z,59.05
2022-10-31T07:15:44.581Z,59.07
2022-10-31T07:18:14.174Z,59.06
2022-10-31T07:20:42.799Z,58.69
2022-10-31T07:23:12.549Z,58.98
2022-10-31T07:25:41.723Z,58.78
2022-10-31T07:28:20.581Z,59.00
2022-10-31T07:30:53.494Z,58.87
2022-10-31T07:33:23.425Z,59.10
2022-10-31T07:36:10.406Z,59.05
2022-10-31T07:38:42.825Z,59.06
2022-10-31T07:41:11.641Z,59.14
2022-10-31T07:43:45.821Z,58.81
2022-10-31T07:46:20.363Z,59.01
2022-10-31T07:49:07.977Z,58.95
2022-10-31T07:51:55.243Z,59.02
2022-10-31T07:54:46.655Z,59.04
2022-10-31T07:57:16.007Z,59.04
2022-10-31T07:59:46.691Z,59.11
2022-10-31T08:02:15.151Z,59.26
2022-10-31T08:05:07.355Z,59.38
2022-10-31T08:07:54.331Z,59.36
2022-10-31T08:10:24.595Z,59.19
2022-10-31T08:13:00.271Z,58.97
2022-10-31T08:15:30.297Z,59.06
2022-10-31T08:17:59.562Z,59.19
2022-10-31T08:20:28.313Z,59.21
2022-10-31T08:22:58.301Z,58.96
2022-10-31T08:25:33.821Z,59.16
2022-10-31T08:28:06.618Z,58.92
2022-10-31T08:30:38.053Z,59.20
2022-10-31T08:33:42.111Z,59.07
2022-10-31T08:36:19.203Z,59.04
2022-10-31T08:38:50.700Z,59.18
2022-10-31T08:41:19.885Z,59.14
2022-10-31T08:43:48.636Z,58.66
2022-10-31T08:46:20.378Z,59.19
2022-10-31T08:48:49.938Z,59.15
2022-10-31T08:51:19.808Z,59.18
2022-10-31T08:53:50.838Z,58.83
2022-10-31T08:56:23.339Z,59.19
2022-10-31T08:58:52.489Z,58.88
2022-10-31T09:01:28.012Z,59.07
2022-10-31T09:03:56.709Z,59.08
2022-10-31T09:06:25.278Z,58.86
2022-10-31T09:08:53.925Z,59.07
2022-10-31T09:11:25.683Z,58.98
2022-10-31T09:14:12.607Z,59.06
2022-10-31T09:16:42.411Z,59.14
2022-10-31T09:19:17.751Z,59.04
2022-10-31T09:21:48.754Z,58.97
2022-10-31T09:24:17.463Z,58.74
2022-10-31T09:26:45.956Z,59.08
2022-10-31T09:29:26.680Z,59.12
2022-10-31T09:32:01.127Z,59.24
2022-10-31T09:34:31.103Z,58.83
2022-10-31T09:37:11.692Z,58.91
2022-10-31T09:39:42.465Z,58.88
2022-10-31T09:42:45.502Z,59.25
2022-10-31T09:45:29.481Z,58.91
2022-10-31T09:48:23.913Z,58.93
2022-10-31T09:51:26.011Z,59.24
2022-10-31T09:54:15.776Z,58.73
2022-10-31T09:56:44.915Z,59.01
2022-10-31T09:59:19.100Z,59.15
2022-10-31T10:01:50.836Z,58.62
2022-10-31T10:04:33.319Z,58.92
2022-10-31T10:07:16.664Z,59.06
2022-10-31T10:09:45.454Z,58.98
2022-10-31T10:12:49.951Z,59.03
2022-10-31T10:15:31.059Z,58.82
2022-10-31T10:18:03.744Z,58.97
2022-10-31T10:20:40.233Z,58.99
2022-10-31T10:23:26.008Z,58.68
2022-10-31T10:26:02.412Z,58.98
2022-10-31T10:28:39.159Z,58.88
2022-10-31T10:31:10.357Z,59.10
2022-10-31T10:33:42.337Z,58.78
2022-10-31T10:36:17.850Z,59.15
2022-10-31T10:38:52.059Z,59.08
2022-10-31T10:41:22.414Z,59.20
2022-10-31T10:43:50.735Z,58.93
2022-10-31T10:46:38.799Z,59.09
2022-10-31T10:49:15.928Z,58.88
2022-10-31T10:52:02.757Z,58.94
2022-10-31T10:54:44.976Z,59.16
2022-10-31T10:57:22.535Z,59.00
2022-10-31T10:59:51.594Z,59.42
2022-10-31T11:02:23.790Z,59.55
2022-10-31T11:04:53.722Z,59.35
2022-10-31T11:07:24.133Z,59.56
2022-10-31T11:09:52.556Z,59.21
2022-10-31T11:12:24.601Z,59.25
2022-10-31T11:14:56.888Z,59.31
2022-10-31T11:17:29.374Z,59.30
2022-10-31T11:20:06.308Z,59.19
2022-10-31T11:22:36.140Z,59.24
2022-10-31T11:25:23.231Z,59.19
2022-10-31T11:28:01.748Z,59.56
2022-10-31T11:30:30.861Z,59.10
2022-10-31T11:33:00.753Z,59.49
2022-10-31T11:35:31.131Z,59.30
2022-10-31T11:38:03.434Z,59.48
2022-10-31T11:40:32.419Z,59.33
2022-10-31T11:43:01.282Z,59.04
2022-10-31T11:45:32.972Z,59.46
2022-10-31T11:48:03.349Z,59.23
2022-10-31T11:50:36.255Z,59.19
2022-10-31T11:53:06.331Z,59.11
2022-10-31T11:55:36.627Z,59.43
2022-10-31T11:58:06.157Z,59.04
2022-10-31T12:00:36.066Z,59.12
2022-10-31T12:03:14.506Z,59.29
2022-10-31T12:05:44.136Z,59.42
2022-10-31T12:08:14.727Z,59.27
2022-10-31T12:10:50.728Z,59.13
2022-10-31T12:13:31.726Z,59.36
2022-10-31T12:16:04.924Z,59.30
2022-10-31T12:18:53.239Z,59.48
2022-10-31T12:21:48.801Z,59.06
2022-10-31T12:24:35.442Z,59.25
2022-10-31T12:27:12.204Z,59.66
2022-10-31T12:30:02.828Z,59.12
2022-10-31T12:32:39.650Z,59.22
2022-10-31T12:35:22.353Z,59.31
2022-10-31T12:38:01.817Z,59.10
2022-10-31T12:40:50.251Z,59.31
2022-10-31T12:43:32.148Z,59.24
2022-10-31T12:46:02.040Z,59.27
2022-10-31T12:48:52.796Z,59.16
2022-10-31T12:51:29.358Z,59.48
2022-10-31T12:54:13.433Z,59.10
2022-10-31T12:56:50.871Z,59.34
2022-10-31T12:59:23.918Z,59.28
2022-10-31T13:01:56.610Z,59.30
2022-10-31T13:04:36.161Z,59.28
2022-10-31T13:07:08.754Z,59.55
2022-10-31T13:09:40.873Z,59.48
2022-10-31T13:12:12.902Z,59.28
2022-10-31T13:14:44.439Z,59.35
2022-10-31T13:17:18.824Z,59.27
2022-10-31T13:19:47.554Z,59.42
2022-10-31T13:22:19.469Z,59.31
2022-10-31T13:24:54.903Z,59.26
2022-10-31T13:27:26.080Z,59.25
2022-10-31T13:30:02.212Z,59.05
2022-10-31T13:32:38.637Z,58.90
2022-10-31T13:35:14.826Z,59.25
2022-10-31T13:37:48.731Z,59.08
2022-10-31T13:40:26.416Z,59.08
2022-10-31T13:43:01.201Z,59.08
2022-10-31T13:45:30.347Z,59.29
2022-10-31T13:48:01.278Z,59.63
2022-10-31T13:50:31.143Z,59.04
2022-10-31T13:53:15.328Z,59.32
2022-10-31T13:55:45.308Z,59.41
2022-10-31T13:58:27.215Z,59.68
2022-10-31T14:01:13.851Z,59.67
2022-10-31T14:06:44.451Z,59.64
2022-10-31T14:09:33.347Z,59.57
2022-10-31T14:12:05.298Z,59.41
2022-10-31T14:14:47.645Z,59.63
2022-10-31T14:17:24.816Z,59.61
2022-10-31T14:20:02.738Z,59.45
2022-10-31T14:22:33.893Z,59.43
2022-10-31T14:25:03.988Z,59.42
2022-10-31T14:27:47.422Z,59.48
2022-10-31T14:30:20.093Z,59.29
2022-10-31T14:32:52.872Z,59.39
2022-10-31T14:35:22.806Z,59.57
2022-10-31T14:38:23.783Z,59.44
2022-10-31T14:41:10.376Z,59.46
2022-10-31T14:44:05.545Z,59.37
2022-10-31T14:46:44.571Z,59.48
2022-10-31T14:49:25.927Z,59.87
2022-10-31T14:51:55.527Z,59.52
2022-10-31T14:54:29.976Z,59.67
2022-10-31T14:57:02.008Z,59.83
2022-10-31T14:59:33.591Z,59.67
2022-10-31T15:02:11.627Z,59.75
2022-10-31T15:04:40.858Z,59.83
2022-10-31T15:07:13.885Z,59.87
2022-10-31T15:09:44.474Z,59.76
2022-10-31T15:12:25.083Z,60.10
2022-10-31T15:14:54.081Z,59.85
2022-10-31T15:17:25.958Z,60.08
2022-10-31T15:19:55.739Z,59.83
2022-10-31T15:22:25.761Z,59.95
2022-10-31T15:24:57.233Z,60.03
2022-10-31T15:27:26.188Z,60.06
2022-10-31T15:29:56.951Z,60.06
2022-10-31T15:32:28.242Z,59.83
2022-10-31T15:34:57.812Z,59.77
2022-10-31T15:37:28.176Z,59.92
2022-10-31T15:39:57.095Z,59.98
2022-10-31T15:42:29.570Z,60.17
2022-10-31T15:45:04.669Z,59.81
2022-10-31T15:47:35.832Z,60.03
2022-10-31T15:50:13.729Z,60.15
2022-10-31T15:52:48.022Z,60.11
2022-10-31T15:55:21.742Z,59.98
2022-10-31T15:57:52.541Z,60.31
2022-10-31T16:00:26.559Z,60.04
2022-10-31T16:03:11.157Z,59.79
2022-10-31T16:05:41.336Z,60.23
2022-10-31T16:08:27.306Z,60.24
2022-10-31T16:10:56.386Z,59.99
2022-10-31T16:13:29.096Z,59.93
2022-10-31T16:16:28.742Z,60.20
2022-10-31T16:18:53.171Z,60.18
2022-10-31T16:21:26.714Z,60.12
2022-10-31T16:24:03.761Z,60.12
2022-10-31T16:26:34.944Z,60.20
2022-10-31T16:29:05.675Z,60.09
2022-10-31T16:31:39.334Z,60.20
2022-10-31T16:34:15.919Z,60.22
2022-10-31T16:36:44.482Z,60.02
2022-10-31T16:39:14.517Z,60.04
2022-10-31T16:41:45.306Z,60.24
2022-10-31T16:44:19.449Z,60.41
2022-10-31T16:46:48.104Z,60.36
2022-10-31T16:49:19.675Z,60.35
2022-10-31T16:51:48.433Z,60.13
2022-10-31T16:54:16.931Z,60.27
2022-10-31T16:56:45.385Z,60.46
2022-10-31T16:59:16.387Z,60.50
2022-10-31T17:01:51.161Z,60.19
2022-10-31T17:04:21.071Z,60.55
2022-10-31T17:06:49.525Z,60.39
2022-10-31T17:09:18.191Z,60.35
2022-10-31T17:11:49.762Z,60.42
2022-10-31T17:14:18.679Z,60.57
2022-10-31T17:16:47.169Z,60.37
2022-10-31T17:19:15.938Z,60.49
2022-10-31T17:21:45.671Z,60.76
2022-10-31T17:24:15.562Z,60.40
2022-10-31T17:26:44.055Z,60.57
2022-10-31T17:29:12.603Z,60.42
2022-10-31T17:31:41.132Z,60.66
2022-10-31T17:34:10.163Z,60.66
2022-10-31T17:36:38.911Z,60.20
2022-10-31T17:39:09.704Z,60.49
2022-10-31T17:41:38.208Z,60.25
2022-10-31T17:44:06.674Z,60.66
2022-10-31T17:46:35.159Z,60.53
2022-10-31T17:49:05.088Z,60.45
2022-10-31T17:51:33.878Z,60.43
2022-10-31T17:54:02.571Z,60.46
2022-10-31T17:56:32.427Z,60.40
2022-10-31T17:59:01.296Z,60.18
2022-10-31T18:01:29.831Z,60.29
2022-10-31T18:03:58.774Z,60.54
2022-10-31T18:06:27.331Z,60.27
2022-10-31T18:08:57.922Z,60.87
2022-10-31T18:11:26.355Z,60.14
2022-10-31T18:14:00.508Z,60.26
2022-10-31T18:16:29.036Z,60.66
2022-10-31T18:19:01.719Z,60.52
2022-10-31T18:21:30.590Z,60.49
2022-10-31T18:24:00.801Z,60.59
2022-10-31T18:26:29.382Z,60.55
2022-10-31T18:28:59.271Z,60.67
2022-10-31T18:31:28.070Z,60.67
2022-10-31T18:33:57.726Z,60.43
2022-10-31T18:36:26.783Z,60.42
2022-10-31T18:38:56.134Z,60.32
2022-10-31T18:41:24.701Z,60.42
2022-10-31T18:43:56.107Z,60.27
2022-10-31T18:46:25.943Z,60.32
2022-10-31T18:48:54.518Z,60.34
2022-10-31T18:51:22.979Z,60.21
2022-10-31T18:53:52.880Z,60.52
2022-10-31T18:56:22.188Z,60.54
2022-10-31T18:58:50.816Z,60.62
2022-10-31T19:01:21.021Z,60.38
2022-10-31T19:03:55.732Z,60.52
2022-10-31T19:06:24.995Z,60.51
2022-10-31T19:08:58.955Z,60.33
2022-10-31T19:11:27.908Z,60.63
2022-10-31T19:13:58.121Z,60.56
2022-10-31T19:16:26.793Z,60.59
2022-10-31T19:18:57.320Z,60.71
2022-10-31T19:21:25.837Z,60.46
2022-10-31T19:23:56.467Z,60.42
2022-10-31T19:26:25.785Z,60.39
2022-10-31T19:28:54.658Z,60.73
2022-10-31T19:31:23.530Z,60.35
2022-10-31T19:33:52.389Z,60.31
2022-10-31T19:36:23.876Z,60.49
2022-10-31T19:38:53.555Z,60.54
2022-10-31T19:41:24.221Z,60.82
2022-10-31T19:43:53.400Z,60.41
2022-10-31T19:46:40.486Z,60.53
2022-10-31T19:49:12.958Z,60.49
2022-10-31T19:51:43.011Z,60.68
2022-10-31T19:54:12.562Z,60.50
2022-10-31T19:56:41.238Z,60.25
2022-10-31T19:59:09.899Z,60.54
2022-10-31T20:01:38.741Z,60.60
2022-10-31T20:04:08.004Z,60.73
2022-10-31T20:06:38.870Z,60.35
2022-10-31T20:09:10.867Z,60.64
2022-10-31T20:11:39.672Z,60.57
2022-10-31T20:14:09.701Z,60.50
2022-10-31T20:16:38.623Z,60.55
2022-10-31T20:19:07.696Z,60.42
2022-10-31T20:21:38.439Z,60.63
2022-10-31T20:24:10.627Z,60.49
2022-10-31T20:26:41.170Z,60.50
2022-10-31T20:29:15.806Z,60.73
2022-10-31T20:31:46.353Z,60.32
2022-10-31T20:34:15.286Z,60.60
2022-10-31T20:36:44.056Z,60.53
2022-10-31T20:39:14.282Z,60.59
2022-10-31T20:41:43.173Z,60.55
2022-10-31T20:44:11.864Z,60.50
2022-10-31T20:46:40.651Z,60.67
2022-10-31T20:49:09.538Z,60.49
2022-10-31T20:51:38.380Z,60.36
2022-10-31T20:54:07.873Z,60.33
2022-10-31T20:56:38.065Z,60.42
2022-10-31T20:59:07.769Z,60.73
2022-10-31T21:01:38.490Z,60.49
2022-10-31T21:04:09.839Z,60.60
2022-10-31T21:06:38.979Z,60.44
2022-10-31T21:09:08.916Z,60.56
2022-10-31T21:11:39.118Z,60.65
2022-10-31T21:14:07.844Z,60.47
2022-10-31T21:16:36.972Z,60.39
2022-10-31T21:19:06.085Z,60.39
2022-10-31T21:21:36.528Z,60.45
2022-10-31T21:24:07.950Z,60.46
2022-10-31T21:26:40.948Z,60.35
2022-10-31T21:29:10.729Z,60.56
2022-10-31T21:31:40.056Z,60.65
2022-10-31T21:34:09.173Z,60.88
2022-10-31T21:36:37.943Z,60.49
2022-10-31T21:39:08.472Z,60.51
2022-10-31T21:41:37.251Z,60.72
2022-10-31T21:44:07.444Z,60.47
2022-10-31T21:46:38.585Z,60.64
2022-10-31T21:49:07.613Z,60.63
2022-10-31T21:51:37.234Z,60.47
2022-10-31T21:54:24.048Z,60.16
2022-10-31T21:56:52.802Z,60.40
2022-10-31T21:59:22.781Z,60.58
2022-10-31T22:01:51.983Z,60.53
2022-10-31T22:04:21.032Z,60.46
2022-10-31T22:06:49.712Z,60.27
2022-10-31T22:09:19.803Z,60.28
2022-10-31T22:11:48.548Z,60.25
2022-10-31T22:14:17.471Z,60.52
2022-10-31T22:16:47.721Z,60.44
2022-10-31T22:19:16.499Z,60.41
2022-10-31T22:21:48.913Z,60.35
2022-10-31T22:24:18.797Z,60.45
2022-10-31T22:26:47.794Z,60.60
2022-10-31T22:29:17.765Z,60.51
2022-10-31T22:31:51.877Z,60.65
2022-10-31T22:34:23.987Z,60.60
2022-10-31T22:36:52.702Z,60.54
2022-10-31T22:39:21.792Z,60.51
2022-10-31T22:41:50.774Z,60.51
2022-10-31T22:44:19.518Z,60.36
2022-10-31T22:46:49.553Z,60.09
2022-10-31T22:49:18.357Z,60.42
2022-10-31T22:51:47.240Z,60.39
2022-10-31T22:54:18.390Z,60.38
2022-10-31T22:56:47.643Z,60.35
2022-10-31T22:59:17.747Z,60.58
2022-10-31T23:01:46.966Z,60.54
2022-10-31T23:04:17.525Z,60.44
2022-10-31T23:06:46.170Z,60.49
2022-10-31T23:09:16.425Z,60.41
2022-10-31T23:11:45.448Z,60.46
2022-10-31T23:14:18.515Z,60.24
2022-10-31T23:16:48.711Z,60.31
2022-10-31T23:19:22.032Z,60.52
2022-10-31T23:21:56.088Z,60.51
2022-10-31T23:24:26.499Z,60.46
2022-10-31T23:27:10.714Z,60.46
2022-10-31T23:29:45.196Z,60.32
2022-10-31T23:32:19.398Z,60.64
2022-10-31T23:34:50.576Z,60.69
2022-10-31T23:37:19.985Z,60.39
2022-10-31T23:39:48.823Z,60.45
2022-10-31T23:42:17.414Z,60.50
2022-10-31T23:44:46.439Z,60.48
2022-10-31T23:47:15.513Z,60.47
2022-10-31T23:49:44.381Z,60.39
2022-10-31T23:52:14.900Z,60.34
2022-10-31T23:54:43.463Z,60.53
2022-10-31T23:57:12.590Z,60.58
2022-10-31T23:59:41.157Z,60.52
